Time;durP1;ratioP1;P1;durP2;ratioP2;P2;SDS_P1;SDS_P2;PMS_P1;PMS_P2;Temp;Humidity;BMP_temperature;BMP_pressure;BME280_temperature;BME280_humidity;BME280_pressure;Samples;Min_cycle;Max_cycle;Signal;HPM_P1;HPM_P2
2022/07/22 00:02:11;;;;;;;;;;;14.40;91.00;;;;;;5116175;28;19907;-66
2022/07/22 00:04:38;;;;;;;;;;;14.50;91.30;;;;;;5117056;28;19919;-65
2022/07/22 00:07:05;;;;;;;;;;;14.40;91.10;;;;;;5116400;28;19915;-66
2022/07/22 00:09:32;;;;;;;;;;;14.50;91.10;;;;;;5116391;28;19973;-65
2022/07/22 00:11:58;;;;;;;;;;;14.60;91.20;;;;;;5116445;28;19912;-66
2022/07/22 00:14:25;;;;;;;;;;;14.70;91.10;;;;;;5116113;28;19958;-66
2022/07/22 00:16:51;;;;;;;;;;;14.70;89.00;;;;;;5116409;28;20261;-66
2022/07/22 00:19:18;;;;;;;;;;;14.80;86.00;;;;;;5116192;28;20234;-66
2022/07/22 00:21:45;;;;;;;;;;;15.00;83.50;;;;;;5116295;28;19915;-67
2022/07/22 00:24:11;;;;;;;;;;;15.20;83.70;;;;;;5116132;28;19908;-66
2022/07/22 00:26:38;;;;;;;;;;;15.30;82.40;;;;;;5116354;28;19912;-66
2022/07/22 00:29:04;;;;;;;;;;;15.40;81.50;;;;;;5116257;28;19914;-66
2022/07/22 00:31:31;;;;;;;;;;;15.40;81.00;;;;;;5115671;28;20019;-66
2022/07/22 00:34:00;;;;;;;;;;;15.60;81.00;;;;;;5115950;28;20007;-66
2022/07/22 00:36:27;;;;;;;;;;;15.70;80.10;;;;;;5115936;28;19930;-66
2022/07/22 00:38:54;;;;;;;;;;;15.70;79.00;;;;;;5116256;28;19908;-66
2022/07/22 00:41:21;;;;;;;;;;;15.70;79.00;;;;;;5115652;28;19918;-65
2022/07/22 00:43:51;;;;;;;;;;;15.80;78.40;;;;;;5115640;28;19916;-66
2022/07/22 00:46:18;;;;;;;;;;;15.80;79.10;;;;;;5115844;28;19961;-66
2022/07/22 00:48:44;;;;;;;;;;;15.80;79.60;;;;;;5116187;28;19908;-66
2022/07/22 00:51:11;;;;;;;;;;;15.80;77.50;;;;;;5115851;28;19912;-66
2022/07/22 00:53:37;;;;;;;;;;;16.00;78.40;;;;;;5115429;28;19915;-65
2022/07/22 00:56:04;;;;;;;;;;;16.00;77.60;;;;;;5115907;28;19912;-66
2022/07/22 00:58:31;;;;;;;;;;;16.00;76.80;;;;;;5115354;28;20454;-65
2022/07/22 01:00:57;;;;;;;;;;;16.00;76.90;;;;;;5115593;28;19908;-66
2022/07/22 01:03:24;;;;;;;;;;;16.00;77.50;;;;;;5115459;28;19908;-65
2022/07/22 01:05:50;;;;;;;;;;;16.00;76.60;;;;;;5115256;28;19911;-66
2022/07/22 01:08:17;;;;;;;;;;;16.00;77.10;;;;;;5115563;28;19912;-67
2022/07/22 01:10:43;;;;;;;;;;;16.00;77.10;;;;;;5097006;28;19912;-66
2022/07/22 01:13:10;;;;;;;;;;;16.00;77.50;;;;;;5097027;28;19912;-66
2022/07/22 01:15:37;;;;;;;;;;;16.00;77.20;;;;;;5115276;28;19924;-66
2022/07/22 01:18:04;;;;;;;;;;;16.10;77.90;;;;;;5115196;28;19995;-66
2022/07/22 01:20:31;;;;;;;;;;;16.10;78.30;;;;;;5115114;28;19914;-67
2022/07/22 01:22:57;;;;;;;;;;;16.10;77.90;;;;;;5114871;28;19908;-66
2022/07/22 01:25:24;;;;;;;;;;;16.20;77.40;;;;;;5114964;28;19908;-66
2022/07/22 01:27:51;;;;;;;;;;;16.20;76.00;;;;;;5114942;28;19916;-66
2022/07/22 01:30:18;;;;;;;;;;;16.20;77.30;;;;;;5114861;28;20048;-66
2022/07/22 01:32:44;;;;;;;;;;;16.10;76.80;;;;;;5115127;28;19957;-65
2022/07/22 01:35:11;;;;;;;;;;;16.10;78.20;;;;;;5114726;28;19920;-65
2022/07/22 01:37:37;;;;;;;;;;;16.10;78.70;;;;;;5114885;28;19958;-65
2022/07/22 01:40:04;;;;;;;;;;;16.10;78.60;;;;;;5114503;28;19908;-66
2022/07/22 01:42:31;;;;;;;;;;;16.10;79.00;;;;;;5114838;28;19908;-65
2022/07/22 01:44:57;;;;;;;;;;;16.10;79.50;;;;;;5114536;28;19953;-65
2022/07/22 01:47:24;;;;;;;;;;;16.00;79.20;;;;;;5115154;28;19908;-65
2022/07/22 01:49:50;;;;;;;;;;;16.00;78.60;;;;;;5114753;28;19957;-65
2022/07/22 01:52:17;;;;;;;;;;;16.00;78.10;;;;;;5114432;28;19908;-65
2022/07/22 01:54:43;;;;;;;;;;;16.00;79.80;;;;;;5095991;28;20296;-66
2022/07/22 01:57:10;;;;;;;;;;;16.00;77.10;;;;;;5114882;28;19908;-65
2022/07/22 01:59:37;;;;;;;;;;;16.00;77.30;;;;;;5114203;28;20002;-65
2022/07/22 02:02:03;;;;;;;;;;;15.90;77.30;;;;;;5114370;28;19981;-66
2022/07/22 02:04:30;;;;;;;;;;;16.00;77.70;;;;;;5114299;28;19951;-66
2022/07/22 02:06:56;;;;;;;;;;;16.00;77.10;;;;;;5114424;28;19953;-65
2022/07/22 02:09:23;;;;;;;;;;;16.00;77.40;;;;;;5114255;28;19908;-65
2022/07/22 02:11:49;;;;;;;;;;;16.00;77.90;;;;;;5114014;28;20002;-65
2022/07/22 02:14:16;;;;;;;;;;;16.10;78.10;;;;;;5113755;28;19977;-65
2022/07/22 02:16:43;;;;;;;;;;;16.00;78.70;;;;;;5114066;28;19908;-66
2022/07/22 02:19:09;;;;;;;;;;;16.10;78.80;;;;;;5112869;28;19907;-65
2022/07/22 02:21:37;;;;;;;;;;;16.20;76.90;;;;;;5095683;28;20284;-65
2022/07/22 02:24:04;;;;;;;;;;;16.30;75.90;;;;;;5113740;28;19943;-66
2022/07/22 02:26:31;;;;;;;;;;;16.30;75.10;;;;;;5113641;28;19938;-66
2022/07/22 02:28:57;;;;;;;;;;;16.20;74.90;;;;;;5114051;28;20377;-65
2022/07/22 02:31:24;;;;;;;;;;;16.20;77.10;;;;;;5113879;28;19907;-65
2022/07/22 02:33:50;;;;;;;;;;;16.20;81.50;;;;;;5113800;28;19923;-65
2022/07/22 02:36:17;;;;;;;;;;;15.90;82.60;;;;;;5113377;28;19911;-66
2022/07/22 02:38:44;;;;;;;;;;;15.80;83.80;;;;;;5113639;28;19914;-65
2022/07/22 02:41:10;;;;;;;;;;;15.70;84.20;;;;;;5113502;28;19953;-65
2022/07/22 02:43:37;;;;;;;;;;;15.60;85.40;;;;;;5113396;28;19918;-67
2022/07/22 02:46:04;;;;;;;;;;;15.50;88.10;;;;;;5113264;28;19908;-68
2022/07/22 02:48:30;;;;;;;;;;;15.30;89.80;;;;;;5094949;28;20002;-68
2022/07/22 02:50:57;;;;;;;;;;;15.10;90.30;;;;;;5113300;28;19933;-70
2022/07/22 02:53:23;;;;;;;;;;;14.90;91.40;;;;;;5113523;28;19916;-69
2022/07/22 02:55:50;;;;;;;;;;;14.80;92.80;;;;;;5113748;28;19923;-68
2022/07/22 02:58:16;;;;;;;;;;;14.70;93.20;;;;;;5094905;28;19927;-68
2022/07/22 03:00:43;;;;;;;;;;;14.70;93.60;;;;;;5113404;28;19912;-68
2022/07/22 03:03:10;;;;;;;;;;;14.60;93.80;;;;;;5113345;28;20428;-68
2022/07/22 03:05:36;;;;;;;;;;;14.70;94.20;;;;;;5113059;28;19952;-68
2022/07/22 03:08:03;;;;;;;;;;;14.60;94.10;;;;;;5113522;28;19915;-68
2022/07/22 03:10:29;;;;;;;;;;;14.60;94.20;;;;;;5113492;28;19915;-69
2022/07/22 03:12:56;;;;;;;;;;;14.30;93.90;;;;;;5095051;28;19908;-69
2022/07/22 03:15:23;;;;;;;;;;;14.20;94.40;;;;;;5113167;28;19920;-68
2022/07/22 03:17:49;;;;;;;;;;;14.20;94.60;;;;;;5112771;28;19908;-68
2022/07/22 03:20:16;;;;;;;;;;;14.10;94.70;;;;;;5112899;28;20280;-69
2022/07/22 03:22:42;;;;;;;;;;;14.10;95.10;;;;;;5113037;28;19934;-69
2022/07/22 03:25:09;;;;;;;;;;;14.00;95.20;;;;;;5112795;28;19912;-69
2022/07/22 03:27:35;;;;;;;;;;;14.00;95.40;;;;;;5112850;28;19907;-68
2022/07/22 03:30:02;;;;;;;;;;;14.00;95.30;;;;;;5112593;28;19961;-68
2022/07/22 03:32:29;;;;;;;;;;;14.00;95.30;;;;;;5094623;28;19919;-68
2022/07/22 03:34:55;;;;;;;;;;;13.90;94.50;;;;;;5112797;28;20432;-68
2022/07/22 03:37:22;;;;;;;;;;;14.00;95.10;;;;;;5112492;28;19911;-68
2022/07/22 03:39:48;;;;;;;;;;;14.10;95.50;;;;;;5111934;28;19912;-68
2022/07/22 03:42:15;;;;;;;;;;;14.20;95.60;;;;;;5112553;28;19904;-68
2022/07/22 03:44:41;;;;;;;;;;;14.20;95.70;;;;;;5112455;28;20049;-68
2022/07/22 03:47:08;;;;;;;;;;;14.20;95.70;;;;;;5112269;28;19915;-68
2022/07/22 03:49:34;;;;;;;;;;;14.20;95.70;;;;;;5112401;28;19916;-68
2022/07/22 03:52:01;;;;;;;;;;;14.20;95.30;;;;;;5112243;28;19916;-68
2022/07/22 03:54:28;;;;;;;;;;;14.20;95.40;;;;;;5112583;28;19912;-68
2022/07/22 03:56:54;;;;;;;;;;;14.20;95.50;;;;;;5094259;28;20365;-68
2022/07/22 03:59:21;;;;;;;;;;;14.30;95.30;;;;;;5112626;28;19941;-68
2022/07/22 04:01:47;;;;;;;;;;;14.20;95.50;;;;;;5094062;28;20429;-68
2022/07/22 04:04:14;;;;;;;;;;;14.30;95.90;;;;;;5112134;28;19914;-68
2022/07/22 04:06:40;;;;;;;;;;;14.20;95.90;;;;;;5112517;28;19962;-68
2022/07/22 04:09:07;;;;;;;;;;;14.30;95.90;;;;;;5112212;28;19908;-68
2022/07/22 04:11:34;;;;;;;;;;;14.20;95.70;;;;;;5112097;28;19908;-67
2022/07/22 04:14:00;;;;;;;;;;;14.30;95.70;;;;;;5112084;28;19918;-67
2022/07/22 04:16:27;;;;;;;;;;;14.30;96.00;;;;;;5112444;28;19912;-67
2022/07/22 04:18:53;;;;;;;;;;;14.30;96.00;;;;;;5112333;28;20277;-67
2022/07/22 04:21:20;;;;;;;;;;;14.30;96.10;;;;;;5093848;28;19930;-67
2022/07/22 04:23:46;;;;;;;;;;;14.30;96.20;;;;;;5111805;28;20013;-67
2022/07/22 04:26:13;;;;;;;;;;;14.30;96.20;;;;;;5112037;28;19912;-67
2022/07/22 04:28:40;;;;;;;;;;;14.40;96.30;;;;;;5112193;28;19915;-67
2022/07/22 04:31:06;;;;;;;;;;;14.40;96.30;;;;;;5111804;28;19908;-67
2022/07/22 04:33:33;;;;;;;;;;;14.40;96.30;;;;;;5112365;28;19943;-67
2022/07/22 04:35:59;;;;;;;;;;;14.40;96.20;;;;;;5112148;28;19916;-67
2022/07/22 04:38:26;;;;;;;;;;;14.30;96.00;;;;;;5104889;28;19919;-68
2022/07/22 04:40:53;;;;;;;;;;;14.20;95.80;;;;;;5112532;28;19908;-68
2022/07/22 04:43:19;;;;;;;;;;;14.20;96.00;;;;;;5114325;28;19918;-68
2022/07/22 04:45:46;;;;;;;;;;;14.20;96.10;;;;;;5115519;28;20414;-67
2022/07/22 04:48:12;;;;;;;;;;;14.00;95.90;;;;;;5097425;28;19911;-68
2022/07/22 04:50:39;;;;;;;;;;;14.00;96.10;;;;;;5103746;28;20367;-72
2022/07/22 04:53:06;;;;;;;;;;;14.00;96.10;;;;;;5115723;28;20183;-72
2022/07/22 04:55:32;;;;;;;;;;;14.00;96.30;;;;;;5115700;28;19977;-67
2022/07/22 04:57:59;;;;;;;;;;;14.10;96.40;;;;;;5115500;28;19994;-66
2022/07/22 05:00:25;;;;;;;;;;;14.00;96.30;;;;;;5101387;28;19919;-66
2022/07/22 05:02:52;;;;;;;;;;;14.10;96.40;;;;;;5115331;28;19904;-66
2022/07/22 05:05:18;;;;;;;;;;;14.20;96.50;;;;;;5115151;28;19985;-66
2022/07/22 05:07:45;;;;;;;;;;;14.10;96.30;;;;;;5110786;28;19946;-66
2022/07/22 05:10:12;;;;;;;;;;;14.10;96.20;;;;;;5113473;28;20284;-66
2022/07/22 05:12:38;;;;;;;;;;;14.10;96.30;;;;;;5115013;28;20019;-66
2022/07/22 05:15:05;;;;;;;;;;;14.20;96.30;;;;;;5115264;28;19916;-66
2022/07/22 05:17:32;;;;;;;;;;;14.20;96.30;;;;;;5105256;28;19955;-66
2022/07/22 05:19:58;;;;;;;;;;;14.20;96.40;;;;;;5112504;28;20297;-66
2022/07/22 05:22:25;;;;;;;;;;;14.20;96.40;;;;;;5084957;28;19916;-66
2022/07/22 05:24:51;;;;;;;;;;;14.30;96.50;;;;;;5105740;27;19934;-66
2022/07/22 05:27:18;;;;;;;;;;;14.20;96.50;;;;;;5124209;27;19918;-67
2022/07/22 05:29:45;;;;;;;;;;;14.20;96.30;;;;;;5113281;27;19937;-67
2022/07/22 05:32:11;;;;;;;;;;;14.10;95.60;;;;;;5107834;27;19915;-67
2022/07/22 05:34:38;;;;;;;;;;;14.10;95.60;;;;;;5111992;28;20385;-66
2022/07/22 05:37:04;;;;;;;;;;;14.10;94.90;;;;;;5112177;28;19997;-67
2022/07/22 05:39:31;;;;;;;;;;;14.10;94.10;;;;;;5112056;28;19915;-66
2022/07/22 05:41:58;;;;;;;;;;;14.20;93.80;;;;;;5109343;28;20345;-66
2022/07/22 05:44:24;;;;;;;;;;;14.30;93.70;;;;;;5119217;27;19973;-66
2022/07/22 05:46:51;;;;;;;;;;;14.30;92.50;;;;;;5093954;28;19931;-68
2022/07/22 05:49:18;;;;;;;;;;;14.40;92.60;;;;;;5111817;28;19959;-67
2022/07/22 05:51:44;;;;;;;;;;;14.50;93.20;;;;;;5082599;28;19916;-70
2022/07/22 05:54:11;;;;;;;;;;;14.30;94.10;;;;;;5104027;28;19927;-69
2022/07/22 05:56:37;;;;;;;;;;;14.20;94.90;;;;;;5107994;28;19907;-69
2022/07/22 05:59:04;;;;;;;;;;;14.20;95.20;;;;;;5111376;28;19934;-65
2022/07/22 06:01:30;;;;;;;;;;;14.10;95.50;;;;;;5108811;28;20318;-67
2022/07/22 06:03:57;;;;;;;;;;;14.20;95.90;;;;;;5111936;28;20382;-66
2022/07/22 06:06:23;;;;;;;;;;;14.10;95.90;;;;;;5110977;28;20212;-69
2022/07/22 06:08:50;;;;;;;;;;;14.10;96.00;;;;;;5093518;28;19916;-68
2022/07/22 06:11:17;;;;;;;;;;;14.20;96.10;;;;;;5111800;28;19919;-67
2022/07/22 06:13:43;;;;;;;;;;;14.20;96.20;;;;;;5108239;28;20432;-68
2022/07/22 06:16:10;;;;;;;;;;;14.20;96.30;;;;;;5111678;27;19916;-69
2022/07/22 06:18:36;;;;;;;;;;;14.20;96.40;;;;;;5110226;28;20021;-68
2022/07/22 06:21:04;;;;;;;;;;;14.10;96.10;;;;;;5121856;27;19969;-68
2022/07/22 06:23:33;;;;;;;;;;;14.00;95.90;;;;;;5103414;28;19929;-69
2022/07/22 06:25:59;;;;;;;;;;;14.00;95.80;;;;;;5106630;28;19993;-68
2022/07/22 06:28:26;;;;;;;;;;;14.00;95.30;;;;;;5111213;28;20381;-69
2022/07/22 06:30:52;;;;;;;;;;;14.00;94.40;;;;;;5101384;28;19923;-68
2022/07/22 06:33:19;;;;;;;;;;;14.00;94.80;;;;;;5102895;28;19969;-68
2022/07/22 06:35:46;;;;;;;;;;;14.00;94.70;;;;;;5110872;28;19959;-69
2022/07/22 06:38:12;;;;;;;;;;;14.00;94.30;;;;;;5110513;28;19912;-68
2022/07/22 06:40:39;;;;;;;;;;;14.00;94.10;;;;;;5104178;28;19912;-68
2022/07/22 06:43:05;;;;;;;;;;;14.00;93.30;;;;;;5107154;28;19933;-68
2022/07/22 06:45:32;;;;;;;;;;;14.00;93.40;;;;;;5110621;28;19911;-68
2022/07/22 06:47:59;;;;;;;;;;;14.00;92.60;;;;;;5109565;28;19965;-68
2022/07/22 06:50:25;;;;;;;;;;;14.10;92.70;;;;;;5110504;28;20324;-68
2022/07/22 06:52:52;;;;;;;;;;;14.10;92.60;;;;;;5103172;28;20014;-68
2022/07/22 06:55:19;;;;;;;;;;;14.10;92.40;;;;;;5108570;28;19920;-68
2022/07/22 06:57:45;;;;;;;;;;;14.10;92.60;;;;;;5109126;28;19916;-68
2022/07/22 07:00:12;;;;;;;;;;;14.10;92.90;;;;;;5110105;28;19924;-67
2022/07/22 07:02:39;;;;;;;;;;;14.20;93.00;;;;;;5108503;28;19930;-67
2022/07/22 07:05:05;;;;;;;;;;;14.20;92.90;;;;;;5109376;28;19923;-67
2022/07/22 07:07:32;;;;;;;;;;;14.20;93.10;;;;;;5110683;28;19918;-67
2022/07/22 07:09:59;;;;;;;;;;;14.20;93.10;;;;;;5110703;28;20395;-68
2022/07/22 07:12:25;;;;;;;;;;;14.20;92.20;;;;;;5109684;28;19989;-68
2022/07/22 07:14:52;;;;;;;;;;;14.20;92.10;;;;;;5110529;28;20006;-68
2022/07/22 07:17:18;;;;;;;;;;;14.20;91.60;;;;;;5108448;28;19942;-68
2022/07/22 07:19:45;;;;;;;;;;;14.20;91.40;;;;;;5114158;27;19911;-68
2022/07/22 07:22:11;;;;;;;;;;;14.20;91.50;;;;;;5118506;27;19923;-67
2022/07/22 07:24:38;;;;;;;;;;;14.20;91.00;;;;;;5091236;28;19912;-67
2022/07/22 07:27:05;;;;;;;;;;;14.20;91.20;;;;;;5110041;28;19912;-67
2022/07/22 07:29:31;;;;;;;;;;;14.20;91.50;;;;;;5097496;28;19963;-67
2022/07/22 07:31:58;;;;;;;;;;;14.20;92.10;;;;;;5110209;28;19968;-67
2022/07/22 07:34:25;;;;;;;;;;;14.10;92.30;;;;;;5110477;28;19957;-68
2022/07/22 07:36:51;;;;;;;;;;;14.10;92.60;;;;;;5110191;28;19993;-66
2022/07/22 07:39:18;;;;;;;;;;;14.10;93.00;;;;;;5104207;28;19946;-66
2022/07/22 07:41:44;;;;;;;;;;;14.00;92.70;;;;;;5097218;28;19919;-67
2022/07/22 07:44:11;;;;;;;;;;;14.00;92.90;;;;;;5110099;28;19912;-66
2022/07/22 07:46:37;;;;;;;;;;;14.00;92.80;;;;;;5109871;28;20309;-65
2022/07/22 07:49:04;;;;;;;;;;;14.00;91.80;;;;;;5108841;28;20070;-65
2022/07/22 07:51:31;;;;;;;;;;;14.00;90.90;;;;;;5106712;28;20298;-66
2022/07/22 07:53:57;;;;;;;;;;;14.00;90.80;;;;;;5109399;28;19926;-67
2022/07/22 07:56:24;;;;;;;;;;;14.00;90.80;;;;;;5109352;28;19920;-65
2022/07/22 07:58:50;;;;;;;;;;;14.10;89.40;;;;;;5109558;28;20056;-66
2022/07/22 08:01:17;;;;;;;;;;;14.10;89.20;;;;;;5105407;28;20113;-65
2022/07/22 08:03:43;;;;;;;;;;;14.20;89.00;;;;;;5107500;28;19935;-65
2022/07/22 08:06:10;;;;;;;;;;;14.20;89.80;;;;;;5109804;28;20067;-66
2022/07/22 08:08:36;;;;;;;;;;;14.20;90.30;;;;;;5109952;28;19918;-65
2022/07/22 08:11:03;;;;;;;;;;;14.10;90.20;;;;;;5109562;28;19926;-65
2022/07/22 08:13:30;;;;;;;;;;;14.00;90.70;;;;;;5107853;28;19912;-66
2022/07/22 08:15:56;;;;;;;;;;;14.00;91.10;;;;;;5104483;28;19931;-67
2022/07/22 08:18:23;;;;;;;;;;;14.00;91.40;;;;;;5111941;28;19915;-66
2022/07/22 08:20:49;;;;;;;;;;;13.90;91.80;;;;;;5108132;27;20396;-67
2022/07/22 08:23:16;;;;;;;;;;;13.90;92.20;;;;;;5092373;28;20349;-67
2022/07/22 08:25:43;;;;;;;;;;;13.90;92.20;;;;;;5110547;28;19916;-66
2022/07/22 08:28:09;;;;;;;;;;;13.90;92.10;;;;;;5110353;27;19930;-67
2022/07/22 08:30:36;;;;;;;;;;;13.90;92.00;;;;;;5105675;28;19911;-66
2022/07/22 08:33:02;;;;;;;;;;;13.90;92.10;;;;;;5108814;28;19915;-65
2022/07/22 08:35:29;;;;;;;;;;;13.90;92.20;;;;;;5111714;28;19927;-66
2022/07/22 08:37:55;;;;;;;;;;;14.00;92.30;;;;;;5100937;28;19965;-65
2022/07/22 08:40:22;;;;;;;;;;;14.00;92.20;;;;;;5094759;28;19912;-64
2022/07/22 08:42:49;;;;;;;;;;;14.00;92.10;;;;;;5113279;28;19918;-65
2022/07/22 08:45:16;;;;;;;;;;;14.00;92.20;;;;;;5112996;28;19919;-65
2022/07/22 08:47:46;;;;;;;;;;;14.00;92.10;;;;;;5110677;27;19915;-63
2022/07/22 08:50:12;;;;;;;;;;;14.00;92.20;;;;;;5101219;27;19951;-66
2022/07/22 08:52:39;;;;;;;;;;;14.00;91.60;;;;;;5110764;28;20277;-65
2022/07/22 08:55:06;;;;;;;;;;;14.10;91.20;;;;;;5113002;28;19923;-66
2022/07/22 08:57:32;;;;;;;;;;;14.10;90.20;;;;;;5113235;28;19908;-67
2022/07/22 08:59:59;;;;;;;;;;;14.10;89.70;;;;;;5112346;28;20019;-67
2022/07/22 09:02:26;;;;;;;;;;;14.10;90.20;;;;;;5102822;28;19951;-67
2022/07/22 09:04:57;;;;;;;;;;;14.10;89.20;;;;;;5112406;28;19918;-67
2022/07/22 09:07:34;;;;;;;;;;;14.20;89.50;;;;;;5099445;28;20015;-67
2022/07/22 09:10:01;;;;;;;;;;;14.10;89.00;;;;;;5112885;28;20373;-69
2022/07/22 09:12:32;;;;;;;;;;;14.10;89.00;;;;;;5111526;28;20007;-67
2022/07/22 09:14:59;;;;;;;;;;;14.10;88.80;;;;;;5112745;28;19959;-65
2022/07/22 09:17:35;;;;;;;;;;;14.10;88.70;;;;;;5112624;28;20369;-65
2022/07/22 09:20:04;;;;;;;;;;;14.10;88.50;;;;;;5107615;27;19915;-65
2022/07/22 09:22:31;;;;;;;;;;;14.10;88.70;;;;;;5111249;28;20362;-63
2022/07/22 09:36:15;;;;;;;;;;;14.10;89.50;;;;;;5085304;28;19965;-67
2022/07/22 09:38:42;;;;;;;;;;;14.10;89.70;;;;;;5110285;28;19951;-64
2022/07/22 09:41:08;;;;;;;;;;;14.00;90.50;;;;;;5111841;28;19912;-66
2022/07/22 09:43:35;;;;;;;;;;;14.00;91.10;;;;;;5108943;28;19927;-65
2022/07/22 09:46:03;;;;;;;;;;;14.00;91.80;;;;;;5112178;28;19912;-66
2022/07/22 09:48:30;;;;;;;;;;;13.90;92.00;;;;;;5106255;28;19998;-64
2022/07/22 09:50:57;;;;;;;;;;;13.90;92.40;;;;;;5107551;28;20006;-64
2022/07/22 09:53:24;;;;;;;;;;;13.90;92.80;;;;;;5112072;28;19915;-65
2022/07/22 09:55:51;;;;;;;;;;;13.90;92.60;;;;;;5090915;28;20435;-66
2022/07/22 09:58:17;;;;;;;;;;;14.00;92.80;;;;;;5110778;28;20393;-65
2022/07/22 10:00:44;;;;;;;;;;;14.00;92.90;;;;;;5118004;27;19911;-65
2022/07/22 10:03:17;;;;;;;;;;;13.90;93.00;;;;;;5127853;27;19956;-65
2022/07/22 10:05:44;;;;;;;;;;;14.00;93.30;;;;;;5124986;27;19922;-65
2022/07/22 10:08:10;;;;;;;;;;;14.00;93.50;;;;;;5093338;28;19912;-66
2022/07/22 10:10:37;;;;;;;;;;;13.90;93.50;;;;;;5090628;27;19916;-65
2022/07/22 10:13:05;;;;;;;;;;;13.90;93.60;;;;;;5112151;27;19911;-64
2022/07/22 10:15:32;;;;;;;;;;;13.90;93.50;;;;;;5108578;28;19977;-65
2022/07/22 10:18:00;;;;;;;;;;;13.90;93.80;;;;;;5110923;28;19920;-65
2022/07/22 10:20:27;;;;;;;;;;;13.90;93.70;;;;;;5119578;27;20354;-65
2022/07/22 10:22:55;;;;;;;;;;;13.80;93.80;;;;;;5111021;28;19915;-66
2022/07/22 10:25:23;;;;;;;;;;;13.80;94.20;;;;;;5111216;28;19961;-65
2022/07/22 10:27:55;;;;;;;;;;;13.80;94.30;;;;;;5092285;28;19942;-64
2022/07/22 10:30:29;;;;;;;;;;;13.70;94.30;;;;;;5111030;28;19912;-65
2022/07/22 10:33:02;;;;;;;;;;;13.70;94.70;;;;;;5111238;28;19922;-63
2022/07/22 10:47:06;;;;;;;;;;;13.60;95.00;;;;;;5094609;28;19982;-66
2022/07/22 10:49:33;;;;;;;;;;;13.60;95.20;;;;;;5109565;28;20382;-65
2022/07/22 10:52:05;;;;;;;;;;;13.60;95.10;;;;;;5110508;28;20277;-66
2022/07/22 10:54:32;;;;;;;;;;;13.50;95.20;;;;;;5110335;28;19922;-66
2022/07/22 10:56:59;;;;;;;;;;;13.70;95.40;;;;;;5092458;28;19939;-66
2022/07/22 10:59:26;;;;;;;;;;;13.60;95.50;;;;;;5091944;28;19912;-66
2022/07/22 11:01:54;;;;;;;;;;;13.60;95.70;;;;;;5106919;28;19947;-65
2022/07/22 11:04:29;;;;;;;;;;;13.50;95.80;;;;;;5110590;28;19912;-66
2022/07/22 11:06:56;;;;;;;;;;;13.50;96.10;;;;;;5109397;27;19933;-66
2022/07/22 11:09:23;;;;;;;;;;;13.50;96.30;;;;;;5118188;27;19959;-66
2022/07/22 11:11:54;;;;;;;;;;;13.50;96.50;;;;;;5114597;27;20393;-65
2022/07/22 11:14:20;;;;;;;;;;;13.50;96.60;;;;;;5122121;27;19912;-65
2022/07/22 11:16:48;;;;;;;;;;;13.50;96.80;;;;;;5124846;27;19944;-66
2022/07/22 11:19:15;;;;;;;;;;;13.50;96.90;;;;;;5114087;27;19923;-65
2022/07/22 11:21:41;;;;;;;;;;;13.50;97.00;;;;;;5115507;27;19907;-66
2022/07/22 11:24:08;;;;;;;;;;;13.50;97.10;;;;;;5122854;27;19920;-65
2022/07/22 11:26:36;;;;;;;;;;;13.50;97.10;;;;;;5121979;27;19960;-66
2022/07/22 11:29:03;;;;;;;;;;;13.50;97.20;;;;;;5127404;27;19911;-66
2022/07/22 11:31:29;;;;;;;;;;;13.40;97.10;;;;;;5126974;27;19915;-66
2022/07/22 11:34:09;;;;;;;;;;;13.30;97.30;;;;;;5122922;27;20378;-66
2022/07/22 11:36:37;;;;;;;;;;;13.30;97.40;;;;;;5109059;27;19919;-65
2022/07/22 11:39:04;;;;;;;;;;;13.30;97.30;;;;;;5110230;27;19923;-65
2022/07/22 11:41:31;;;;;;;;;;;13.40;97.40;;;;;;5107451;28;19911;-66
2022/07/22 11:43:57;;;;;;;;;;;13.40;97.50;;;;;;5092381;28;19919;-66
2022/07/22 11:46:25;;;;;;;;;;;13.40;97.50;;;;;;5111533;28;20028;-66
2022/07/22 11:48:56;;;;;;;;;;;13.40;97.50;;;;;;5111087;28;19911;-65
2022/07/22 11:51:27;;;;;;;;;;;13.40;97.50;;;;;;5111694;27;19988;-66
2022/07/22 11:53:54;;;;;;;;;;;13.40;97.60;;;;;;5091311;28;20022;-65
2022/07/22 11:56:20;;;;;;;;;;;13.30;97.60;;;;;;5113875;28;19912;-64
2022/07/22 11:58:47;;;;;;;;;;;13.30;97.50;;;;;;5112880;28;19912;-65
2022/07/22 12:01:15;;;;;;;;;;;13.30;97.60;;;;;;5111367;28;20094;-65
2022/07/22 12:03:45;;;;;;;;;;;13.30;97.60;;;;;;5115314;28;19916;-66
2022/07/22 12:06:12;;;;;;;;;;;13.30;97.70;;;;;;5110625;28;19911;-65
2022/07/22 12:08:45;;;;;;;;;;;13.30;97.70;;;;;;5110165;28;19918;-66
2022/07/22 12:11:12;;;;;;;;;;;13.30;97.70;;;;;;5090837;28;20331;-65
2022/07/22 12:13:41;;;;;;;;;;;13.30;97.70;;;;;;5092711;28;19916;-66
2022/07/22 12:16:37;;;;;;;;;;;13.30;97.80;;;;;;5108721;28;19928;-66
2022/07/22 12:19:05;;;;;;;;;;;13.30;97.80;;;;;;5098267;28;19907;-65
2022/07/22 12:21:33;;;;;;;;;;;13.30;97.80;;;;;;5121367;28;19912;-67
2022/07/22 12:24:04;;;;;;;;;;;13.30;97.80;;;;;;5112193;28;19914;-66
2022/07/22 12:26:48;;;;;;;;;;;13.30;97.90;;;;;;5108745;28;19912;-67
2022/07/22 12:29:22;;;;;;;;;;;13.30;97.90;;;;;;5108995;28;20313;-67
2022/07/22 12:31:49;;;;;;;;;;;13.40;97.90;;;;;;5115420;28;19912;-67
2022/07/22 12:34:16;;;;;;;;;;;13.30;97.90;;;;;;5096588;28;19916;-67
2022/07/22 12:36:46;;;;;;;;;;;13.30;97.90;;;;;;5108270;28;19912;-68
2022/07/22 12:39:16;;;;;;;;;;;13.30;97.90;;;;;;5121434;28;19971;-67
2022/07/22 12:41:47;;;;;;;;;;;13.30;98.00;;;;;;5100079;28;19916;-66
2022/07/22 12:44:17;;;;;;;;;;;13.40;98.00;;;;;;5109209;28;19969;-65
2022/07/22 12:46:50;;;;;;;;;;;13.30;98.00;;;;;;5109402;28;20587;-66
2022/07/22 12:49:20;;;;;;;;;;;13.30;98.00;;;;;;5109971;28;19927;-67
2022/07/22 12:52:06;;;;;;;;;;;13.30;98.00;;;;;;5091043;28;19911;-67
2022/07/22 12:54:33;;;;;;;;;;;13.30;98.00;;;;;;5105376;28;19966;-65
2022/07/22 12:57:00;;;;;;;;;;;13.30;98.00;;;;;;5110082;28;19969;-65
2022/07/22 12:59:26;;;;;;;;;;;13.30;98.00;;;;;;5112314;28;20396;-65
2022/07/22 13:01:53;;;;;;;;;;;13.30;98.00;;;;;;5107168;28;20349;-64
2022/07/22 13:04:19;;;;;;;;;;;13.30;98.00;;;;;;5108035;27;20327;-66
2022/07/22 13:06:46;;;;;;;;;;;13.30;98.00;;;;;;5103669;28;19995;-65
2022/07/22 13:09:12;;;;;;;;;;;13.30;98.00;;;;;;5089383;28;19920;-65
2022/07/22 13:11:43;;;;;;;;;;;13.20;98.00;;;;;;5096537;27;20011;-66
2022/07/22 13:14:10;;;;;;;;;;;13.30;98.00;;;;;;5107188;27;19922;-66
2022/07/22 13:16:36;;;;;;;;;;;13.20;98.00;;;;;;5110920;27;20381;-64
2022/07/22 13:19:03;;;;;;;;;;;13.20;98.00;;;;;;5119257;27;19912;-65
2022/07/22 13:21:29;;;;;;;;;;;13.20;98.00;;;;;;5117548;27;20420;-65
2022/07/22 13:23:56;;;;;;;;;;;13.10;97.90;;;;;;5113030;27;19938;-64
2022/07/22 13:26:24;;;;;;;;;;;13.10;97.90;;;;;;5104563;27;19954;-65
2022/07/22 13:28:50;;;;;;;;;;;13.10;97.90;;;;;;5103351;27;19931;-66
2022/07/22 13:31:17;;;;;;;;;;;13.10;97.90;;;;;;5095650;28;19919;-65
2022/07/22 13:33:44;;;;;;;;;;;13.00;97.90;;;;;;5111800;28;19995;-64
2022/07/22 13:36:10;;;;;;;;;;;13.00;97.90;;;;;;5111515;28;19928;-64
2022/07/22 13:38:37;;;;;;;;;;;13.00;97.90;;;;;;5111856;28;19999;-65
2022/07/22 13:41:16;;;;;;;;;;;13.00;97.90;;;;;;5111275;28;19908;-65
2022/07/22 13:43:43;;;;;;;;;;;13.00;97.90;;;;;;5114529;28;19919;-65
2022/07/22 13:46:10;;;;;;;;;;;13.00;97.90;;;;;;5114186;28;19918;-65
2022/07/22 13:48:37;;;;;;;;;;;13.00;97.90;;;;;;5106673;28;20332;-65
2022/07/22 13:51:04;;;;;;;;;;;12.90;98.00;;;;;;5115047;28;20406;-65
2022/07/22 13:53:31;;;;;;;;;;;13.00;98.00;;;;;;5114569;28;20276;-65
2022/07/22 13:55:58;;;;;;;;;;;13.00;98.00;;;;;;5114739;28;19919;-65
2022/07/22 13:58:24;;;;;;;;;;;13.00;98.00;;;;;;5105301;28;19912;-65
2022/07/22 14:00:51;;;;;;;;;;;13.00;98.00;;;;;;5114487;28;19941;-65
2022/07/22 14:03:17;;;;;;;;;;;13.00;98.00;;;;;;5114714;28;20305;-65
2022/07/22 14:05:44;;;;;;;;;;;13.00;98.00;;;;;;5114213;28;19977;-65
2022/07/22 14:08:11;;;;;;;;;;;13.00;98.00;;;;;;5114375;28;19957;-65
2022/07/22 14:10:37;;;;;;;;;;;13.00;98.00;;;;;;5103964;28;19943;-65
2022/07/22 14:13:06;;;;;;;;;;;13.00;98.00;;;;;;5114078;28;19908;-65
2022/07/22 14:15:33;;;;;;;;;;;13.00;97.90;;;;;;5113709;28;20436;-65
2022/07/22 14:18:00;;;;;;;;;;;13.00;98.00;;;;;;5113888;28;20557;-65
2022/07/22 14:20:26;;;;;;;;;;;13.00;97.90;;;;;;5113697;28;19908;-65
2022/07/22 14:22:53;;;;;;;;;;;12.90;97.90;;;;;;5107261;28;20285;-65
2022/07/22 14:25:20;;;;;;;;;;;12.90;97.90;;;;;;5113959;28;20426;-65
2022/07/22 14:27:47;;;;;;;;;;;12.90;97.90;;;;;;5113916;28;19915;-64
2022/07/22 14:30:13;;;;;;;;;;;12.80;97.90;;;;;;5112199;28;20011;-65
2022/07/22 14:32:40;;;;;;;;;;;12.80;97.80;;;;;;5107723;28;20385;-65
2022/07/22 14:35:07;;;;;;;;;;;12.70;97.80;;;;;;5107634;28;20342;-65
2022/07/22 14:37:33;;;;;;;;;;;12.70;97.80;;;;;;5113818;28;20377;-65
2022/07/22 14:40:00;;;;;;;;;;;12.70;97.80;;;;;;5113750;28;19914;-65